7AR6 weather

RBC Airport
Jonesboro, Arkansas, United States

Public forecast

Using degrees Fahrenheit for public forecast. Weather courtesy of forecast.io.

Closest aviation weather report (METAR) to RBC Airport

Report is more than 6 hours old.

Closest report is Jonesboro Municipal Airport, 7.9 nm (14.6 km) ENE. Retrieved 2020/03/28 23:53 UTC (2 months ago):

KJBR 282353Z AUTO RMK AO2 LTG DSNT E-S RAEMM SLPNO P0005 60018 10239 20217 PWINO FZRANO

Closest aviation forecast (TAF) to RBC Airport

Closest forecast is Jonesboro Municipal Airport, 7.9 nm (14.6 km) ENE. Retrieved 2020/05/25 06:22 UTC (5 hours ago):

TAF KJBR 250520Z 2506/2606 17005KT P6SM VCSH SCT100 FM251100 10007KT P6SM SCT200 FM251800 16010KT P6SM VCTS SCT040CB BKN100 FM260100 18004KT P6SM SCT100 AMD NOT SKED